createdAt,value
2023-09-04T00:01:51.008Z,17.27
2023-09-04T00:04:18.651Z,21.93
2023-09-04T00:06:46.320Z,19.20
2023-09-04T00:09:16.249Z,21.80
2023-09-04T00:11:43.871Z,20.43
2023-09-04T00:14:11.883Z,16.93
2023-09-04T00:16:39.520Z,19.50
2023-09-04T00:19:07.166Z,17.93
2023-09-04T00:21:34.827Z,20.73
2023-09-04T00:24:02.884Z,20.90
2023-09-04T00:26:30.762Z,21.47
2023-09-04T00:28:58.110Z,24.20
2023-09-04T00:31:25.617Z,23.93
2023-09-04T00:33:52.883Z,23.10
2023-09-04T00:36:20.204Z,24.17
2023-09-04T00:38:47.445Z,22.90
2023-09-04T00:41:15.138Z,20.20
2023-09-04T00:43:42.292Z,19.87
2023-09-04T00:46:09.626Z,22.47
2023-09-04T00:48:37.848Z,22.67
2023-09-04T00:51:05.130Z,24.07
2023-09-04T00:53:34.841Z,27.47
2023-09-04T00:56:03.992Z,28.53
2023-09-04T00:58:31.206Z,25.33
2023-09-04T01:00:58.693Z,31.70
2023-09-04T01:03:26.620Z,23.90
2023-09-04T01:05:53.816Z,26.27
2023-09-04T01:08:21.306Z,27.37
2023-09-04T01:10:54.640Z,24.83
2023-09-04T01:13:48.280Z,26.33
2023-09-04T01:16:17.107Z,27.77
2023-09-04T01:18:45.033Z,29.43
2023-09-04T01:21:12.107Z,24.47
2023-09-04T01:23:39.089Z,23.47
2023-09-04T01:26:30.756Z,27.20
2023-09-04T01:29:17.877Z,24.93
2023-09-04T01:32:07.279Z,30.03
2023-09-04T01:34:39.287Z,34.37
2023-09-04T01:37:07.118Z,25.13
2023-09-04T01:39:34.728Z,35.70
2023-09-04T01:42:02.174Z,25.50
2023-09-04T01:44:29.466Z,23.17
2023-09-04T01:46:56.847Z,27.97
2023-09-04T01:49:23.966Z,32.83
2023-09-04T01:51:52.811Z,29.87
2023-09-04T01:54:20.084Z,30.17
2023-09-04T01:56:47.433Z,30.63
2023-09-04T01:59:15.136Z,24.67
2023-09-04T02:01:42.478Z,23.60
2023-09-04T02:04:09.886Z,33.27
2023-09-04T02:06:37.221Z,24.93
2023-09-04T02:09:05.756Z,24.63
2023-09-04T02:11:33.127Z,20.73
2023-09-04T02:14:00.491Z,22.30
2023-09-04T02:18:56.601Z,24.70
2023-09-04T02:21:23.825Z,21.20
2023-09-04T02:23:51.628Z,17.53
2023-09-04T02:26:18.761Z,19.13
2023-09-04T02:28:45.901Z,22.73
2023-09-04T02:31:13.189Z,20.53
2023-09-04T02:33:40.519Z,21.17
2023-09-04T02:36:07.720Z,27.40
2023-09-04T02:38:34.983Z,27.53
2023-09-04T02:41:02.203Z,28.50
2023-09-04T02:43:29.372Z,26.17
2023-09-04T02:45:58.940Z,29.97
2023-09-04T02:48:26.319Z,29.43
2023-09-04T02:50:58.798Z,28.40
2023-09-04T02:53:29.606Z,32.03
2023-09-04T02:55:56.848Z,32.20
2023-09-04T02:58:24.297Z,36.20
2023-09-04T03:00:51.696Z,43.63
2023-09-04T03:03:25.807Z,39.77
2023-09-04T03:05:53.451Z,41.23
2023-09-04T03:08:20.735Z,42.00
2023-09-04T03:10:48.355Z,43.20
2023-09-04T03:13:15.295Z,43.97
2023-09-04T03:15:42.430Z,43.23
2023-09-04T03:18:10.669Z,40.73
2023-09-04T03:20:37.964Z,43.07
2023-09-04T03:23:04.975Z,46.40
2023-09-04T03:25:33.758Z,46.57
2023-09-04T03:28:00.918Z,50.93
2023-09-04T03:30:27.997Z,50.40
2023-09-04T03:32:55.274Z,54.90
2023-09-04T03:35:22.494Z,55.33
2023-09-04T03:37:49.646Z,55.37
2023-09-04T03:40:25.046Z,56.53
2023-09-04T03:42:53.999Z,49.03
2023-09-04T03:45:21.130Z,49.20
2023-09-04T03:47:49.507Z,46.40
2023-09-04T03:50:17.133Z,47.17
2023-09-04T03:52:44.822Z,48.77
2023-09-04T03:55:13.419Z,44.97
2023-09-04T03:57:45.399Z,51.80
2023-09-04T04:00:18.009Z,46.53
2023-09-04T04:02:47.279Z,46.17
2023-09-04T04:05:15.985Z,48.73
2023-09-04T04:07:46.185Z,41.37
2023-09-04T04:10:13.928Z,36.80
2023-09-04T04:12:41.683Z,32.93
2023-09-04T04:15:09.600Z,36.00
2023-09-04T04:17:37.581Z,34.33
2023-09-04T04:20:10.982Z,37.93
2023-09-04T04:22:38.566Z,33.87
2023-09-04T04:25:06.765Z,34.07
2023-09-04T04:27:34.025Z,34.23
2023-09-04T04:30:03.434Z,41.30
2023-09-04T04:32:30.926Z,39.23
2023-09-04T04:34:58.217Z,39.53
2023-09-04T04:37:25.635Z,42.37
2023-09-04T04:39:53.676Z,86.13
2023-09-04T04:42:21.044Z,56.27
2023-09-04T04:44:48.130Z,45.70
2023-09-04T04:47:15.435Z,51.67
2023-09-04T04:49:43.578Z,46.10
2023-09-04T04:52:10.921Z,31.13
2023-09-04T04:54:38.100Z,42.97
2023-09-04T04:57:05.399Z,35.67
2023-09-04T04:59:32.520Z,68.70
2023-09-04T05:02:01.510Z,40.30
2023-09-04T05:04:28.642Z,129.43
2023-09-04T05:06:55.776Z,124.23
2023-09-04T05:09:23.886Z,40.30
2023-09-04T05:11:51.144Z,49.80
2023-09-04T05:14:18.186Z,48.53
2023-09-04T05:16:45.448Z,89.77
2023-09-04T05:19:13.354Z,38.27
2023-09-04T05:21:55.625Z,47.43
2023-09-04T05:24:23.664Z,42.40
2023-09-04T05:26:50.976Z,66.47
2023-09-04T05:29:18.057Z,75.67
2023-09-04T05:31:44.980Z,27.10
2023-09-04T05:34:12.110Z,26.03
2023-09-04T05:36:39.135Z,30.57
2023-09-04T05:39:06.304Z,29.90
2023-09-04T05:41:33.461Z,71.00
2023-09-04T05:44:00.887Z,37.40
2023-09-04T05:46:28.138Z,27.03
2023-09-04T05:48:55.478Z,88.67
2023-09-04T05:51:22.981Z,118.03
2023-09-04T05:53:51.274Z,28.03
2023-09-04T05:56:20.719Z,94.53
2023-09-04T05:58:50.736Z,73.70
2023-09-04T06:01:19.674Z,39.43
2023-09-04T06:03:47.676Z,62.10
2023-09-04T06:06:15.024Z,110.93
2023-09-04T06:08:42.667Z,64.53
2023-09-04T06:11:09.768Z,39.20
2023-09-04T06:13:36.845Z,61.73
2023-09-04T06:16:05.030Z,46.13
2023-09-04T06:18:32.358Z,43.37
2023-09-04T06:20:59.514Z,25.23
2023-09-04T06:23:26.885Z,138.93
2023-09-04T06:25:54.021Z,73.73
2023-09-04T06:28:21.767Z,23.57
2023-09-04T06:30:51.459Z,119.47
2023-09-04T06:33:18.933Z,54.10
2023-09-04T06:35:46.231Z,73.40
2023-09-04T06:38:14.112Z,57.40
2023-09-04T06:40:41.659Z,109.73
2023-09-04T06:43:08.857Z,64.13
2023-09-04T06:45:37.573Z,31.63
2023-09-04T06:48:08.649Z,40.07
2023-09-04T06:50:36.101Z,31.27
2023-09-04T06:53:04.219Z,39.53
2023-09-04T06:55:31.669Z,26.30
2023-09-04T06:57:59.040Z,39.63
2023-09-04T07:00:26.639Z,25.53
2023-09-04T07:02:54.208Z,24.20
2023-09-04T07:05:22.996Z,26.97
2023-09-04T07:07:50.476Z,28.10
2023-09-04T07:10:18.312Z,23.77
2023-09-04T07:12:46.197Z,26.23
2023-09-04T07:15:14.821Z,26.83
2023-09-04T07:17:42.812Z,23.60
2023-09-04T07:20:12.398Z,26.70
2023-09-04T07:22:40.198Z,21.73
2023-09-04T07:25:08.447Z,30.03
2023-09-04T07:27:36.551Z,26.77
2023-09-04T07:30:04.866Z,23.43
2023-09-04T07:32:32.882Z,19.40
2023-09-04T07:35:00.824Z,19.13
2023-09-04T07:37:29.273Z,16.92
2023-09-04T07:39:57.709Z,16.05
2023-09-04T07:42:27.083Z,16.60
2023-09-04T07:44:54.952Z,16.60
2023-09-04T07:47:22.965Z,16.02
2023-09-04T07:49:52.354Z,13.50
2023-09-04T07:52:20.259Z,15.20
2023-09-04T07:54:50.149Z,13.32
2023-09-04T07:57:18.148Z,15.27
2023-09-04T07:59:45.729Z,11.07
2023-09-04T08:02:14.972Z,11.15
2023-09-04T08:04:43.043Z,10.15
2023-09-04T08:07:10.956Z,13.00
2023-09-04T08:09:40.518Z,10.02
2023-09-04T08:12:08.171Z,8.70
2023-09-04T08:14:37.543Z,7.25
2023-09-04T08:17:05.880Z,8.50
2023-09-04T08:19:34.059Z,6.25
2023-09-04T08:22:02.528Z,7.75
2023-09-04T08:24:32.836Z,4.78
2023-09-04T08:27:02.880Z,6.43
2023-09-04T08:29:31.522Z,4.45
2023-09-04T08:31:59.616Z,4.72
2023-09-04T08:34:29.606Z,6.18
2023-09-04T08:36:58.825Z,5.43
2023-09-04T08:39:28.536Z,3.67
2023-09-04T08:41:59.206Z,3.95
2023-09-04T08:44:36.310Z,3.55
2023-09-04T08:52:45.525Z,2.50
2023-09-04T08:55:32.494Z,2.53
2023-09-04T08:58:13.475Z,6.22
2023-09-04T09:00:41.925Z,1.73
2023-09-04T09:06:03.961Z,2.90
2023-09-04T09:08:38.538Z,4.25
2023-09-04T09:11:13.016Z,3.00
2023-09-04T09:13:42.065Z,4.20
2023-09-04T09:16:10.873Z,2.85
2023-09-04T09:21:37.557Z,2.17
2023-09-04T09:25:03.786Z,1.95
2023-09-04T09:27:37.324Z,2.70
2023-09-04T09:30:11.821Z,2.22
2023-09-04T09:32:41.543Z,2.30
2023-09-04T09:35:17.860Z,3.03
2023-09-04T09:37:47.828Z,4.63
2023-09-04T09:40:17.648Z,1.90
2023-09-04T09:42:47.743Z,3.65
2023-09-04T09:45:18.786Z,2.45
2023-09-04T09:48:16.060Z,4.40
2023-09-04T09:50:48.714Z,2.67
2023-09-04T09:53:21.162Z,3.13
2023-09-04T09:55:52.537Z,3.25
2023-09-04T10:01:11.541Z,3.10
2023-09-04T10:03:41.954Z,2.83
2023-09-04T10:06:16.404Z,2.92
2023-09-04T10:24:03.910Z,1.88
2023-09-04T10:47:58.784Z,4.30
2023-09-04T10:50:59.108Z,2.75
2023-09-04T10:56:30.121Z,2.70
2023-09-04T11:05:15.305Z,3.97
2023-09-04T11:07:45.974Z,3.70
2023-09-04T11:10:31.611Z,6.15
2023-09-04T11:13:00.574Z,3.22
2023-09-04T11:15:30.283Z,4.05
2023-09-04T11:17:59.496Z,2.70
2023-09-04T11:20:29.670Z,4.45
2023-09-04T11:22:59.902Z,2.67
2023-09-04T11:25:30.305Z,2.90
2023-09-04T11:28:02.858Z,2.60
2023-09-04T11:30:31.760Z,3.63
2023-09-04T11:33:02.086Z,3.15
2023-09-04T11:35:30.662Z,3.10
2023-09-04T11:38:03.398Z,3.40
2023-09-04T11:40:33.884Z,4.18
2023-09-04T11:43:05.422Z,3.03
2023-09-04T11:45:34.077Z,3.55
2023-09-04T11:48:03.336Z,3.95
2023-09-04T11:50:33.104Z,2.88
2023-09-04T11:53:01.796Z,4.22
2023-09-04T11:55:30.063Z,4.63
2023-09-04T11:57:59.440Z,6.78
2023-09-04T12:00:27.601Z,4.95
2023-09-04T12:02:56.414Z,3.22
2023-09-04T12:05:24.727Z,3.40
2023-09-04T12:07:53.234Z,3.70
2023-09-04T12:10:21.695Z,3.10
2023-09-04T12:12:50.176Z,3.00
2023-09-04T12:15:34.876Z,2.70
2023-09-04T12:18:05.699Z,2.65
2023-09-04T12:20:45.114Z,4.57
2023-09-04T12:23:13.307Z,3.05
2023-09-04T12:25:43.483Z,4.93
2023-09-04T12:28:16.983Z,3.70
2023-09-04T12:30:49.133Z,4.47
2023-09-04T12:33:19.727Z,4.63
2023-09-04T12:35:56.937Z,3.85
2023-09-04T12:38:25.406Z,5.07
2023-09-04T12:40:55.450Z,9.05
2023-09-04T12:43:23.720Z,5.22
2023-09-04T12:45:53.308Z,3.95
2023-09-04T12:48:23.008Z,3.90
2023-09-04T12:50:52.361Z,4.30
2023-09-04T12:53:27.562Z,4.22
2023-09-04T12:55:56.693Z,4.22
2023-09-04T12:58:27.052Z,3.95
2023-09-04T13:00:57.358Z,3.47
2023-09-04T13:03:27.677Z,3.58
2023-09-04T13:05:58.336Z,4.45
2023-09-04T13:08:31.339Z,3.10
2023-09-04T13:13:50.610Z,2.50
2023-09-04T13:16:27.173Z,2.90
2023-09-04T13:21:53.859Z,3.80
2023-09-04T13:24:26.539Z,3.08
2023-09-04T13:27:05.164Z,3.45
2023-09-04T13:29:42.933Z,2.30
2023-09-04T13:32:33.832Z,2.50
2023-09-04T13:35:18.802Z,2.47
2023-09-04T13:38:02.005Z,3.25
2023-09-04T13:40:35.579Z,2.22
2023-09-04T13:48:48.268Z,2.35
2023-09-04T13:54:05.202Z,2.22
2023-09-04T13:56:45.482Z,2.00
2023-09-04T13:59:23.050Z,1.75
2023-09-04T14:04:41.864Z,1.90
2023-09-04T14:09:54.870Z,1.90
2023-09-04T14:12:48.972Z,2.97
2023-09-04T14:36:04.029Z,1.95
2023-09-04T14:38:37.230Z,3.33
2023-09-04T14:41:24.912Z,1.48
2023-09-04T14:43:55.366Z,2.80
2023-09-04T14:46:27.349Z,3.03
2023-09-04T14:49:02.357Z,2.38
2023-09-04T14:51:33.927Z,1.50
2023-09-04T14:54:03.952Z,1.40
2023-09-04T14:56:39.194Z,1.58
2023-09-04T15:02:00.717Z,1.15
2023-09-04T15:04:38.187Z,1.40
2023-09-04T15:12:42.225Z,1.48
2023-09-04T15:15:18.482Z,1.23
2023-09-04T15:21:16.613Z,2.47
2023-09-04T15:24:13.134Z,2.47
2023-09-04T15:27:01.497Z,1.67
2023-09-04T15:30:04.079Z,3.47
2023-09-04T15:32:44.004Z,1.40
2023-09-04T15:35:24.209Z,3.80
2023-09-04T15:37:57.869Z,1.55
2023-09-04T15:43:10.388Z,1.23
2023-09-04T15:45:43.131Z,3.50
2023-09-04T15:48:22.105Z,3.03
2023-09-04T15:53:38.198Z,1.30
2023-09-04T15:59:02.378Z,1.60
2023-09-04T16:01:37.113Z,1.90
2023-09-04T16:04:23.013Z,2.60
2023-09-04T16:06:56.901Z,2.03
2023-09-04T16:09:45.334Z,1.30
2023-09-04T16:12:17.556Z,4.00
2023-09-04T16:18:03.007Z,1.20
2023-09-04T16:20:34.132Z,1.63
2023-09-04T16:23:04.855Z,3.15
2023-09-04T16:28:43.266Z,1.38
2023-09-04T16:33:58.053Z,1.08
2023-09-04T16:36:32.413Z,2.00
2023-09-04T16:39:10.281Z,1.35
2023-09-04T16:44:27.591Z,1.33
2023-09-04T16:46:59.057Z,3.05
2023-09-04T16:49:41.023Z,1.45
2023-09-04T16:54:57.905Z,1.17
2023-09-04T16:57:36.945Z,3.38
2023-09-04T17:00:18.744Z,2.53
2023-09-04T17:02:54.574Z,1.88
2023-09-04T17:05:25.838Z,2.35
2023-09-04T17:08:05.267Z,1.50
2023-09-04T17:13:44.423Z,1.63
2023-09-04T17:16:31.787Z,1.65
2023-09-04T17:19:15.573Z,1.60
2023-09-04T17:21:48.275Z,4.57
2023-09-04T17:24:28.697Z,2.40
2023-09-04T17:30:00.583Z,2.55
2023-09-04T17:32:33.733Z,2.75
2023-09-04T17:35:13.398Z,2.53
2023-09-04T17:37:46.221Z,2.00
2023-09-04T17:40:17.555Z,4.47
2023-09-04T17:42:48.659Z,5.22
2023-09-04T17:48:10.708Z,6.25
2023-09-04T17:53:28.656Z,4.63
2023-09-04T17:56:02.645Z,6.45
2023-09-04T17:58:35.838Z,5.47
2023-09-04T18:03:54.060Z,7.32
2023-09-04T18:06:24.475Z,8.65
2023-09-04T18:08:56.743Z,13.82
2023-09-04T18:11:28.666Z,11.35
2023-09-04T18:22:40.605Z,10.32
2023-09-04T18:34:29.604Z,9.38
2023-09-04T18:37:21.003Z,9.48
2023-09-04T18:45:49.728Z,6.07
2023-09-04T18:48:19.167Z,7.70
2023-09-04T18:50:53.760Z,11.68
2023-09-04T18:53:22.458Z,7.45
2023-09-04T18:55:55.050Z,8.82
2023-09-04T18:58:26.421Z,6.53
2023-09-04T19:01:04.862Z,5.00
2023-09-04T19:03:32.794Z,5.82
2023-09-04T19:06:01.241Z,6.28
2023-09-04T19:08:29.324Z,9.77
2023-09-04T19:10:57.379Z,6.70
2023-09-04T19:13:25.440Z,6.05
2023-09-04T19:15:53.381Z,7.73
2023-09-04T19:18:21.451Z,8.95
2023-09-04T19:20:51.192Z,6.13
2023-09-04T19:23:19.195Z,7.03
2023-09-04T19:25:47.174Z,9.07
2023-09-04T19:28:15.078Z,7.47
2023-09-04T19:30:42.968Z,6.57
2023-09-04T19:33:11.035Z,12.80
2023-09-04T19:35:38.827Z,8.93
2023-09-04T19:38:06.645Z,5.63
2023-09-04T19:40:34.567Z,5.77
2023-09-04T19:43:02.650Z,6.93
2023-09-04T19:45:30.407Z,10.17
2023-09-04T19:47:58.255Z,9.70
2023-09-04T19:50:26.046Z,22.10
2023-09-04T19:52:54.013Z,18.83
2023-09-04T19:55:21.794Z,19.60
2023-09-04T19:57:49.558Z,10.20
2023-09-04T20:00:17.457Z,9.43
2023-09-04T20:02:45.425Z,7.00
2023-09-04T20:05:13.431Z,6.17
2023-09-04T20:07:42.984Z,3.63
2023-09-04T20:10:11.410Z,4.07
2023-09-04T20:12:39.528Z,5.53
2023-09-04T20:15:08.271Z,4.07
2023-09-04T20:17:36.961Z,5.37
2023-09-04T20:20:04.921Z,3.13
2023-09-04T20:22:33.547Z,3.00
2023-09-04T20:25:02.482Z,2.40
2023-09-04T20:27:30.377Z,5.67
2023-09-04T20:29:58.251Z,5.03
2023-09-04T20:32:27.340Z,7.83
2023-09-04T20:34:55.108Z,7.23
2023-09-04T20:37:23.149Z,5.83
2023-09-04T20:39:51.086Z,3.30
2023-09-04T20:42:19.088Z,3.27
2023-09-04T20:44:47.040Z,8.63
2023-09-04T20:47:15.017Z,4.17
2023-09-04T20:49:43.169Z,5.67
2023-09-04T20:52:12.146Z,6.27
2023-09-04T20:54:42.325Z,4.87
2023-09-04T20:57:10.274Z,5.23
2023-09-04T20:59:38.207Z,3.83
2023-09-04T21:02:07.475Z,3.77
2023-09-04T21:04:35.425Z,5.63
2023-09-04T21:07:08.969Z,4.90
2023-09-04T21:09:37.142Z,3.77
2023-09-04T21:12:23.413Z,4.20
2023-09-04T21:15:09.610Z,4.63
2023-09-04T21:17:56.023Z,5.30
2023-09-04T21:20:42.090Z,6.60
2023-09-04T21:23:28.527Z,4.60
2023-09-04T21:26:14.922Z,6.07
2023-09-04T21:29:01.482Z,7.27
2023-09-04T21:31:47.775Z,4.17
2023-09-04T21:34:33.829Z,4.77
2023-09-04T21:37:20.429Z,4.80
2023-09-04T21:40:06.606Z,4.23
2023-09-04T21:42:52.824Z,8.03
2023-09-04T21:45:39.037Z,6.13
2023-09-04T21:48:25.726Z,7.13
2023-09-04T21:51:11.962Z,4.87
2023-09-04T21:53:58.396Z,7.23
2023-09-04T21:56:44.617Z,4.10
2023-09-04T21:59:30.852Z,5.20
2023-09-04T22:02:17.272Z,5.07
2023-09-04T22:05:03.477Z,5.77
2023-09-04T22:07:49.266Z,5.77
2023-09-04T22:10:36.375Z,6.43
2023-09-04T22:13:22.823Z,4.00
2023-09-04T22:16:09.719Z,5.23
2023-09-04T22:18:56.037Z,10.97
2023-09-04T22:21:42.049Z,6.13
2023-09-04T22:24:28.283Z,4.83
2023-09-04T22:27:17.705Z,4.90
2023-09-04T22:30:03.861Z,5.70
2023-09-04T22:32:50.424Z,5.73
2023-09-04T22:35:36.775Z,5.70
2023-09-04T22:38:30.844Z,5.00
2023-09-04T22:41:22.776Z,4.53
2023-09-04T22:44:09.255Z,9.20
2023-09-04T22:46:55.677Z,5.13
2023-09-04T22:49:42.021Z,5.20
2023-09-04T22:52:28.213Z,5.23
2023-09-04T22:55:14.406Z,4.60
2023-09-04T22:58:00.718Z,7.93
2023-09-04T23:00:47.109Z,6.70
2023-09-04T23:03:33.810Z,5.03
2023-09-04T23:06:20.000Z,7.30
2023-09-04T23:09:06.258Z,4.67
2023-09-04T23:11:52.326Z,6.67
2023-09-04T23:14:38.456Z,6.07
2023-09-04T23:17:24.651Z,5.23
2023-09-04T23:20:10.574Z,6.83
2023-09-04T23:22:38.064Z,6.37
2023-09-04T23:25:05.981Z,4.60
2023-09-04T23:27:33.934Z,4.10
2023-09-04T23:30:08.106Z,7.97
2023-09-04T23:33:03.225Z,4.50
2023-09-04T23:36:06.380Z,5.07
2023-09-04T23:38:54.342Z,4.57
2023-09-04T23:41:40.605Z,4.40
2023-09-04T23:44:31.079Z,4.70
2023-09-04T23:46:59.214Z,4.07
2023-09-04T23:49:28.394Z,5.43
2023-09-04T23:51:56.186Z,3.83
2023-09-04T23:54:27.361Z,5.77
2023-09-04T23:56:57.298Z,5.10
2023-09-04T23:59:26.663Z,5.13
